Time;durP1;ratioP1;P1;durP2;ratioP2;P2;SDS_P1;SDS_P2;PMS_P1;PMS_P2;Temp;Humidity;BMP_temperature;BMP_pressure;BME280_temperature;BME280_humidity;BME280_pressure;Samples;Min_cycle;Max_cycle;Signal;HPM_P1;HPM_P2
2021/10/01 00:00:56;;;;;;;16.45;7.67;;;;;;;6.32;77.77;101745.45;1767192;80;21018;-78
2021/10/01 00:03:22;;;;;;;14.95;7.17;;;;;;;6.38;77.84;101752.48;1766486;81;20994;-78
2021/10/01 00:05:48;;;;;;;15.30;7.37;;;;;;;6.42;77.89;101753.11;1767045;80;21503;-78
2021/10/01 00:08:14;;;;;;;15.45;6.97;;;;;;;6.45;77.93;101757.71;1767340;80;21519;-79
2021/10/01 00:10:41;;;;;;;14.40;7.12;;;;;;;6.50;77.98;101758.72;1767113;81;21974;-78
2021/10/01 00:13:06;;;;;;;13.28;6.62;;;;;;;6.54;78.03;101751.73;1757390;80;20982;-78
2021/10/01 00:15:33;;;;;;;14.38;6.87;;;;;;;6.58;78.07;101742.27;1736557;82;21029;-79
2021/10/01 00:17:59;;;;;;;14.53;6.83;;;;;;;6.59;78.11;101739.48;1736536;82;21758;-79
2021/10/01 00:20:25;;;;;;;15.45;6.92;;;;;;;6.61;78.13;101738.06;1736449;82;21557;-78
2021/10/01 00:22:51;;;;;;;9.28;5.60;;;;;;;6.62;78.17;101736.61;1736479;82;21898;-78
2021/10/01 00:25:17;;;;;;;10.70;5.33;;;;;;;6.64;78.19;101732.53;1736565;82;21065;-78
2021/10/01 00:27:43;;;;;;;10.18;5.50;;;;;;;6.70;78.23;101734.73;1757771;81;21002;-78
2021/10/01 00:30:09;;;;;;;9.93;5.58;;;;;;;6.74;78.23;101734.40;1767517;80;21030;-78
2021/10/01 00:32:35;;;;;;;10.20;5.70;;;;;;;6.76;78.27;101726.31;1743335;82;21022;-78
2021/10/01 00:35:01;;;;;;;12.58;6.15;;;;;;;6.77;78.27;101727.54;1743217;82;21170;-78
2021/10/01 00:37:28;;;;;;;12.73;5.95;;;;;;;6.84;78.28;101722.63;1743203;82;21057;-77
2021/10/01 00:39:54;;;;;;;11.53;6.00;;;;;;;6.88;78.28;101720.12;1743269;82;21010;-77
2021/10/01 00:42:20;;;;;;;10.82;5.95;;;;;;;6.92;78.29;101720.27;1743232;82;21033;-78
2021/10/01 00:44:46;;;;;;;9.63;5.55;;;;;;;6.93;78.29;101720.64;1747079;81;21490;-78
2021/10/01 00:47:13;;;;;;;14.13;6.53;;;;;;;6.95;78.29;101725.34;1724794;82;21902;-77
2021/10/01 00:49:39;;;;;;;11.83;6.00;;;;;;;6.96;78.29;101715.95;1705384;84;21077;-78
2021/10/01 00:52:06;;;;;;;13.15;6.35;;;;;;;6.96;78.28;101717.75;1710126;81;21073;-78
2021/10/01 00:54:32;;;;;;;15.95;6.90;;;;;;;6.95;78.30;101706.77;1713081;82;21034;-78
2021/10/01 00:57:00;;;;;;;12.30;6.35;;;;;;;6.95;78.30;101718.70;1713154;83;21066;-78
2021/10/01 00:59:27;;;;;;;12.95;7.10;;;;;;;6.95;78.29;101714.73;1713123;83;21148;-78
2021/10/01 01:01:53;;;;;;;13.30;6.85;;;;;;;6.95;78.29;101716.05;1712991;83;21058;-79
2021/10/01 01:04:19;;;;;;;12.65;7.50;;;;;;;6.94;78.29;101712.55;1712961;83;21471;-78
2021/10/01 01:07:25;;;;;;;14.00;7.22;;;;;;;6.94;78.30;101707.25;1712708;82;21061;-78
2021/10/01 01:10:05;;;;;;;12.60;6.78;;;;;;;6.94;78.29;101709.05;1713100;83;21052;-78
2021/10/01 01:13:09;;;;;;;11.25;6.97;;;;;;;6.94;78.30;101711.22;1713066;83;21859;-78
2021/10/01 01:15:40;;;;;;;15.40;7.42;;;;;;;6.93;78.30;101711.36;1696444;84;20980;-79
2021/10/01 01:18:15;;;;;;;17.60;7.05;;;;;;;6.91;78.30;101703.98;1719998;81;21092;-79
2021/10/01 01:20:51;;;;;;;14.55;7.50;;;;;;;6.89;78.28;101707.23;1725531;83;21024;-79
2021/10/01 01:23:58;;;;;;;16.65;8.05;;;;;;;6.83;78.29;101705.02;1725732;81;21071;-79
2021/10/01 01:26:41;;;;;;;13.08;7.08;;;;;;;6.79;78.30;101711.53;1695223;84;21109;-79
2021/10/01 01:29:33;;;;;;;13.93;7.83;;;;;;;6.75;78.31;101708.73;1722805;81;21051;-79
2021/10/01 01:32:07;;;;;;;14.53;7.87;;;;;;;6.71;78.33;101708.13;1725584;83;21059;-79
2021/10/01 01:34:54;;;;;;;16.05;8.08;;;;;;;6.68;78.32;101710.15;1725433;83;21000;-79
2021/10/01 01:37:27;;;;;;;17.75;9.58;;;;;;;6.62;78.31;101711.42;1724645;81;21084;-79
2021/10/01 01:39:54;;;;;;;13.88;9.15;;;;;;;6.56;78.33;101705.73;1723421;82;21327;-79
2021/10/01 01:42:20;;;;;;;17.07;9.73;;;;;;;6.52;78.35;101707.77;1694186;83;21082;-79
2021/10/01 01:44:46;;;;;;;20.27;8.58;;;;;;;6.48;78.36;101700.52;1707191;83;21528;-79
2021/10/01 01:47:12;;;;;;;15.20;9.30;;;;;;;6.45;78.37;101702.06;1721865;82;21543;-79
2021/10/01 01:49:38;;;;;;;18.45;9.50;;;;;;;6.43;78.39;101700.02;1742987;82;21049;-79
2021/10/01 01:52:04;;;;;;;13.85;8.83;;;;;;;6.42;78.42;101694.34;1743060;82;21675;-79
2021/10/01 01:54:31;;;;;;;18.32;9.53;;;;;;;6.41;78.43;101690.47;1742915;82;21061;-79
2021/10/01 01:56:57;;;;;;;18.62;9.73;;;;;;;6.39;78.47;101690.59;1715670;82;21037;-79
2021/10/01 01:59:24;;;;;;;17.85;8.58;;;;;;;6.37;78.47;101689.84;1742995;82;20994;-79
2021/10/01 02:01:50;;;;;;;17.37;9.40;;;;;;;6.35;78.49;101691.77;1692170;82;21073;-79
2021/10/01 02:04:16;;;;;;;21.02;9.20;;;;;;;6.32;78.51;101686.70;1742495;81;21098;-79
2021/10/01 02:06:43;;;;;;;15.98;9.03;;;;;;;6.30;78.53;101681.97;1715580;82;21584;-80
2021/10/01 02:09:12;;;;;;;15.28;9.05;;;;;;;6.29;78.56;101685.60;1714699;82;21066;-79
2021/10/01 02:11:40;;;;;;;17.67;8.95;;;;;;;6.28;78.56;101683.90;1741493;82;21050;-79
2021/10/01 02:14:06;;;;;;;19.12;9.25;;;;;;;6.25;78.60;101677.50;1741707;82;21269;-79
2021/10/01 02:16:32;;;;;;;17.87;9.03;;;;;;;6.23;78.63;101678.55;1741630;82;21171;-79
2021/10/01 02:18:58;;;;;;;20.60;10.25;;;;;;;6.22;78.64;101674.23;1741357;82;21096;-79
2021/10/01 02:21:24;;;;;;;20.32;10.63;;;;;;;6.19;78.66;101676.63;1741819;82;21054;-79
2021/10/01 02:23:50;;;;;;;18.23;9.88;;;;;;;6.16;78.69;101678.14;1741644;82;21384;-79
2021/10/01 02:26:39;;;;;;;16.90;9.53;;;;;;;6.14;78.72;101681.40;1741789;82;21077;-79
2021/10/01 02:29:14;;;;;;;17.92;9.58;;;;;;;6.13;78.74;101684.99;1741657;82;21159;-79
2021/10/01 02:32:14;;;;;;;18.32;9.18;;;;;;;6.12;78.77;101675.38;1741768;80;21513;-79
2021/10/01 02:34:43;;;;;;;20.60;9.85;;;;;;;6.13;78.79;101677.05;1741515;82;21061;-80
2021/10/01 02:37:10;;;;;;;16.73;9.48;;;;;;;6.15;78.83;101683.10;1741759;82;21026;-79
2021/10/01 02:39:38;;;;;;;17.67;9.23;;;;;;;6.18;78.84;101672.75;1741564;82;20970;-79
2021/10/01 02:42:05;;;;;;;17.25;9.38;;;;;;;6.20;78.86;101678.30;1741625;82;21159;-79
2021/10/01 02:44:32;;;;;;;21.10;8.58;;;;;;;6.23;78.89;101671.92;1741597;82;21101;-79
2021/10/01 02:46:58;;;;;;;23.92;9.13;;;;;;;6.26;78.93;101671.22;1741272;82;21640;-79
2021/10/01 02:49:24;;;;;;;21.65;8.95;;;;;;;6.27;78.94;101674.25;1733639;82;21502;-79
2021/10/01 02:51:53;;;;;;;19.57;9.20;;;;;;;6.30;78.96;101674.03;1733851;82;21755;-79
2021/10/01 02:54:28;;;;;;;17.07;9.38;;;;;;;6.28;79.01;101665.83;1733808;82;21271;-79
2021/10/01 02:57:13;;;;;;;17.60;8.88;;;;;;;6.27;79.02;101663.66;1734837;81;20979;-79
2021/10/01 02:59:40;;;;;;;22.82;14.38;;;;;;;6.27;79.05;101672.92;1734662;82;21078;-79
2021/10/01 03:02:06;;;;;;;21.12;12.85;;;;;;;6.26;79.07;101671.73;1735026;82;21027;-79
2021/10/01 03:04:32;;;;;;;16.93;11.43;;;;;;;6.24;79.09;101670.50;1734462;82;21026;-79
2021/10/01 03:06:58;;;;;;;20.60;11.43;;;;;;;6.24;79.12;101667.00;1734829;82;21145;-79
2021/10/01 03:09:24;;;;;;;21.62;10.80;;;;;;;6.26;79.12;101664.61;1734818;82;20994;-79
2021/10/01 03:11:50;;;;;;;23.18;10.20;;;;;;;6.24;79.14;101658.59;1734456;82;21558;-79
2021/10/01 03:14:16;;;;;;;21.05;16.70;;;;;;;6.25;79.15;101660.28;1734679;82;20966;-79
2021/10/01 03:16:44;;;;;;;32.50;26.20;;;;;;;6.25;79.15;101660.28;1734739;82;21006;-79
2021/10/01 03:19:10;;;;;;;34.45;26.87;;;;;;;6.25;79.16;101659.44;1734719;82;21139;-79
2021/10/01 03:21:36;;;;;;;30.35;21.77;;;;;;;6.24;79.19;101658.59;1735350;81;21121;-79
2021/10/01 03:24:03;;;;;;;31.02;22.25;;;;;;;6.22;79.18;101655.22;1734868;82;21559;-79
2021/10/01 03:26:29;;;;;;;27.60;19.45;;;;;;;6.22;79.22;101655.22;1734878;82;21008;-79
2021/10/01 03:28:55;;;;;;;26.77;18.37;;;;;;;6.23;79.21;101661.33;1735183;82;21026;-79
2021/10/01 03:31:26;;;;;;;20.37;12.98;;;;;;;6.22;79.23;101656.54;1734981;82;21113;-80
2021/10/01 03:33:52;;;;;;;22.80;11.68;;;;;;;6.22;79.24;101657.86;1734767;82;20998;-79
2021/10/01 03:36:18;;;;;;;23.67;12.98;;;;;;;6.20;79.25;101656.26;1734652;82;21061;-79
2021/10/01 03:38:47;;;;;;;20.97;12.10;;;;;;;6.19;79.28;101656.77;1734736;82;20970;-79
2021/10/01 03:41:16;;;;;;;28.33;14.77;;;;;;;6.18;79.29;101655.06;1735146;82;21042;-79
2021/10/01 03:43:42;;;;;;;22.65;12.93;;;;;;;6.15;79.31;101651.31;1734384;81;21259;-79
2021/10/01 03:46:08;;;;;;;19.45;12.07;;;;;;;6.13;79.31;101647.92;1728240;81;20993;-79
2021/10/01 03:48:34;;;;;;;21.07;11.93;;;;;;;6.11;79.33;101647.67;1767280;80;20935;-80
2021/10/01 03:51:00;;;;;;;20.48;11.20;;;;;;;6.08;79.34;101642.12;1779336;80;21484;-80
2021/10/01 03:53:26;;;;;;;23.70;11.83;;;;;;;6.03;79.38;101642.92;1779624;80;21068;-79
2021/10/01 03:55:52;;;;;;;28.90;11.25;;;;;;;5.99;79.38;101636.14;1779474;80;21041;-80
2021/10/01 03:58:18;;;;;;;22.82;11.10;;;;;;;5.97;79.41;101639.39;1779335;80;21072;-79
2021/10/01 04:00:45;;;;;;;17.48;10.63;;;;;;;5.95;79.41;101637.32;1779383;80;21397;-79
2021/10/01 04:03:12;;;;;;;21.90;11.20;;;;;;;5.92;79.44;101633.09;1779417;80;21056;-79
2021/10/01 04:05:39;;;;;;;21.95;12.40;;;;;;;5.90;79.47;101640.32;1779660;80;20997;-79
2021/10/01 04:08:09;;;;;;;19.80;11.53;;;;;;;5.90;79.48;101635.50;1779445;80;21692;-79
2021/10/01 04:10:35;;;;;;;19.92;11.43;;;;;;;5.87;79.48;101638.37;1778415;80;21527;-79
2021/10/01 04:13:03;;;;;;;19.50;11.20;;;;;;;5.85;79.51;101632.28;1736674;80;21491;-80
2021/10/01 04:15:29;;;;;;;26.70;12.73;;;;;;;5.83;79.52;101644.80;1726926;83;21038;-79
2021/10/01 04:17:55;;;;;;;24.37;12.70;;;;;;;5.81;79.55;101644.04;1726821;83;21014;-79
2021/10/01 04:20:21;;;;;;;23.52;12.13;;;;;;;5.78;79.59;101636.33;1727097;83;21547;-79
2021/10/01 04:22:47;;;;;;;22.05;12.25;;;;;;;5.75;79.60;101641.84;1726881;83;21404;-79
2021/10/01 04:25:13;;;;;;;26.90;15.83;;;;;;;5.73;79.61;101643.77;1726865;83;21031;-79
2021/10/01 04:27:39;;;;;;;29.87;17.45;;;;;;;5.71;79.64;101644.33;1726760;83;21034;-79
2021/10/01 04:30:06;;;;;;;21.17;12.68;;;;;;;5.70;79.67;101649.27;1726492;83;21054;-79
2021/10/01 04:32:34;;;;;;;23.38;12.93;;;;;;;5.68;79.69;101645.88;1726683;82;21011;-79
2021/10/01 04:35:02;;;;;;;24.77;11.30;;;;;;;5.66;79.72;101641.17;1726719;83;21495;-79
2021/10/01 04:37:28;;;;;;;21.75;12.73;;;;;;;5.65;79.73;101643.44;1745936;80;21478;-79
2021/10/01 04:39:54;;;;;;;21.65;12.05;;;;;;;5.63;79.77;101642.22;1758246;81;21462;-79
2021/10/01 04:42:21;;;;;;;21.12;11.38;;;;;;;5.61;79.77;101639.31;1758424;81;21073;-79
2021/10/01 04:44:47;;;;;;;24.80;11.75;;;;;;;5.62;79.81;101635.73;1756920;81;21120;-80
2021/10/01 04:47:13;;;;;;;21.55;11.68;;;;;;;5.61;79.83;101634.88;1726646;83;20996;-80
2021/10/01 04:49:39;;;;;;;18.42;11.05;;;;;;;5.62;79.84;101640.55;1731702;82;20985;-79
2021/10/01 04:52:05;;;;;;;23.10;12.40;;;;;;;5.61;79.87;101635.34;1731905;82;21054;-79
2021/10/01 04:54:31;;;;;;;23.85;11.80;;;;;;;5.61;79.88;101639.31;1732047;82;21025;-79
2021/10/01 04:56:57;;;;;;;23.10;11.70;;;;;;;5.60;79.90;101637.61;1732312;82;21195;-80
2021/10/01 04:59:23;;;;;;;21.70;11.88;;;;;;;5.61;79.92;101636.67;1732260;82;21511;-80
2021/10/01 05:01:49;;;;;;;19.55;11.08;;;;;;;5.61;79.96;101634.88;1742897;81;21545;-79
2021/10/01 05:04:15;;;;;;;22.25;12.10;;;;;;;5.60;79.97;101627.03;1732010;82;21050;-80
2021/10/01 05:06:42;;;;;;;24.52;13.03;;;;;;;5.60;79.99;101627.88;1764233;81;21057;-79
2021/10/01 05:09:08;;;;;;;26.42;11.33;;;;;;;5.62;80.00;101628.64;1732107;82;21155;-80
2021/10/01 05:11:34;;;;;;;19.52;12.30;;;;;;;5.63;80.02;101628.98;1764174;81;21033;-79
2021/10/01 05:14:01;;;;;;;44.75;23.20;;;;;;;5.66;80.05;101628.80;1732092;82;21050;-79
2021/10/01 05:16:27;;;;;;;98.80;50.40;;;;;;;5.67;80.06;101625.64;1763977;81;20982;-79
2021/10/01 05:18:53;;;;;;;56.90;32.50;;;;;;;5.70;80.05;101625.45;1732370;82;21018;-79
2021/10/01 05:21:19;;;;;;;36.10;22.70;;;;;;;5.72;80.09;101622.21;1764041;81;21106;-79
2021/10/01 05:23:45;;;;;;;27.70;16.37;;;;;;;5.75;80.09;101630.78;1732033;82;20979;-79
2021/10/01 05:26:11;;;;;;;21.70;12.78;;;;;;;5.79;80.10;101627.44;1762659;81;21020;-79
2021/10/01 05:28:37;;;;;;;20.30;12.58;;;;;;;5.84;80.11;101635.91;1732142;82;21058;-79
2021/10/01 05:31:03;;;;;;;15.75;10.93;;;;;;;5.88;80.13;101632.09;1732072;82;21559;-79
2021/10/01 05:33:29;;;;;;;17.10;11.60;;;;;;;5.91;80.14;101630.58;1732256;82;21836;-80
2021/10/01 05:35:55;;;;;;;17.35;11.15;;;;;;;5.95;80.13;101633.34;1732391;82;21034;-80
2021/10/01 05:38:24;;;;;;;44.67;20.30;;;;;;;5.99;80.15;101631.70;1732165;82;20994;-79
2021/10/01 05:40:49;;;;;;;20.15;11.97;;;;;;;6.06;80.14;101638.72;1730304;82;21066;-79
2021/10/01 05:43:16;;;;;;;18.30;11.03;;;;;;;6.10;80.15;101634.90;1750229;82;21024;-79
2021/10/01 05:45:42;;;;;;;19.87;11.65;;;;;;;6.26;80.19;101641.27;1745513;81;21162;-79
2021/10/01 05:48:08;;;;;;;18.77;9.65;;;;;;;6.32;80.15;101635.05;1740724;81;21026;-79
2021/10/01 05:50:39;;;;;;;17.60;9.55;;;;;;;6.39;80.12;101637.61;1755021;81;21509;-79
2021/10/01 05:53:05;;;;;;;21.05;10.20;;;;;;;6.58;80.02;101641.55;1732544;80;21037;-79
2021/10/01 05:55:30;;;;;;;13.55;8.78;;;;;;;6.84;79.91;101636.45;1729341;83;21045;-79
2021/10/01 05:57:56;;;;;;;18.00;9.18;;;;;;;7.14;79.86;101642.11;1715449;82;21278;-79
2021/10/01 06:00:22;;;;;;;12.88;9.10;;;;;;;7.41;79.85;101642.63;1724190;83;21005;-80
2021/10/01 06:02:48;;;;;;;17.42;8.28;;;;;;;7.69;79.86;101643.11;1733478;82;21011;-79
2021/10/01 06:05:14;;;;;;;16.37;8.53;;;;;;;7.93;79.83;101642.49;1741884;81;21006;-79
2021/10/01 06:07:41;;;;;;;15.28;8.00;;;;;;;8.11;79.79;101647.66;1719884;82;21025;-80
2021/10/01 06:10:08;;;;;;;13.65;7.72;;;;;;;8.25;79.75;101649.20;1700975;84;21617;-80
2021/10/01 06:12:34;;;;;;;13.83;9.08;;;;;;;8.37;79.72;101643.75;1700845;83;20993;-80
2021/10/01 06:15:00;;;;;;;18.10;7.95;;;;;;;8.46;79.67;101649.67;1726511;83;21037;-79
2021/10/01 06:17:26;;;;;;;12.43;7.30;;;;;;;8.58;79.57;101637.67;1710053;83;21026;-80
2021/10/01 06:19:52;;;;;;;16.67;8.18;;;;;;;8.70;79.43;101648.13;1716650;83;21023;-80
2021/10/01 06:22:18;;;;;;;13.10;7.58;;;;;;;8.80;79.34;101644.20;1716567;83;21198;-80
2021/10/01 06:24:44;;;;;;;15.95;8.00;;;;;;;8.86;79.23;101635.73;1700706;83;21090;-80
2021/10/01 06:27:11;;;;;;;12.55;7.37;;;;;;;8.94;79.13;101645.22;1672963;85;21480;-80
2021/10/01 06:29:37;;;;;;;12.33;7.85;;;;;;;9.10;78.95;101640.31;1672945;85;21117;-80
2021/10/01 06:32:05;;;;;;;15.00;7.90;;;;;;;9.31;78.83;101641.15;1693087;83;21561;-80
2021/10/01 06:34:31;;;;;;;16.50;9.03;;;;;;;9.40;78.65;101643.01;1716317;83;21189;-80
2021/10/01 06:36:57;;;;;;;14.47;8.13;;;;;;;9.51;78.64;101615.45;1719967;82;20904;-79
2021/10/01 06:39:23;;;;;;;16.52;7.83;;;;;;;9.51;78.64;101615.45;1724229;82;21031;-80
2021/10/01 06:41:49;;;;;;;23.42;9.08;;;;;;;9.72;78.21;101638.04;1722090;82;21069;-80
2021/10/01 06:44:24;;;;;;;22.42;8.43;;;;;;;9.79;78.08;101635.20;1711265;83;21466;-80
2021/10/01 06:51:53;;;;;;;11.65;7.97;;;;;;;9.99;77.54;101632.97;1712252;82;21023;-79
2021/10/01 07:29:17;;;;;;;13.72;7.05;;;;;;;11.37;75.10;101637.56;1701543;83;21080;-81
2021/10/01 07:35:35;;;;;;;11.55;6.80;;;;;;;11.98;74.22;101632.58;1715653;83;21019;-80
2021/10/01 08:18:41;;;;;;;11.55;5.03;;;;;;;13.39;70.42;101611.16;1670043;84;21034;-80
2021/10/01 08:20:55;;;;;;;9.20;5.08;;;;;;;13.51;70.18;101612.55;1733565;79;21852;-79
2021/10/01 08:23:21;;;;;;;8.55;4.85;;;;;;;13.66;70.00;101605.25;1764870;79;21002;-79
2021/10/01 08:25:47;;;;;;;9.38;5.08;;;;;;;13.71;69.79;101602.44;1765734;81;21018;-79
2021/10/01 08:28:13;;;;;;;7.85;5.33;;;;;;;13.83;69.59;101598.45;1765327;81;21022;-79
2021/10/01 08:30:39;;;;;;;9.98;5.12;;;;;;;13.93;69.32;101599.16;1764884;81;20998;-80
2021/10/01 08:33:05;;;;;;;12.53;5.92;;;;;;;14.01;69.12;101599.20;1765403;81;21604;-80
2021/10/01 08:35:32;;;;;;;8.25;5.55;;;;;;;14.11;68.92;101597.71;1737478;81;21010;-81
2021/10/01 08:37:58;;;;;;;7.95;5.20;;;;;;;14.21;68.75;101595.75;1765595;79;21376;-79
2021/10/01 08:40:24;;;;;;;12.68;4.70;;;;;;;14.35;68.55;101592.95;1765531;81;21002;-80
2021/10/01 08:42:52;;;;;;;8.43;4.05;;;;;;;14.47;68.37;101588.93;1764240;81;21014;-80
2021/10/01 08:45:20;;;;;;;10.95;5.72;;;;;;;14.54;68.14;101597.16;1765597;80;21052;-80
2021/10/01 08:47:47;;;;;;;8.80;4.22;;;;;;;14.58;67.89;101598.01;1765693;80;21045;-80
2021/10/01 08:50:17;;;;;;;8.53;4.28;;;;;;;14.57;67.54;101589.61;1765902;80;21412;-80
2021/10/01 08:52:43;;;;;;;7.87;4.12;;;;;;;14.63;67.28;101590.80;1765931;80;21002;-80
2021/10/01 08:55:09;;;;;;;8.73;4.65;;;;;;;14.69;67.10;101587.44;1766198;80;21475;-80
2021/10/01 08:57:35;;;;;;;11.10;4.12;;;;;;;14.92;66.47;101577.69;1765982;80;21010;-80
2021/10/01 09:00:05;;;;;;;7.72;3.52;;;;;;;14.92;66.47;101577.69;1764904;81;21115;-81
2021/10/01 09:02:31;;;;;;;9.70;3.92;;;;;;;15.06;66.37;101579.69;1787384;80;26543;-80
2021/10/01 09:04:58;;;;;;;6.00;3.75;;;;;;;15.25;66.23;101576.64;1778116;80;21005;-81
2021/10/01 09:07:24;;;;;;;5.75;2.70;;;;;;;15.31;65.98;101574.60;1771863;80;21085;-80
2021/10/01 09:09:52;;;;;;;4.70;2.65;;;;;;;15.24;65.66;101567.39;1742331;81;21644;-80
2021/10/01 09:12:19;;;;;;;4.75;2.80;;;;;;;15.20;65.29;101574.96;1767373;81;21039;-81
2021/10/01 09:14:56;;;;;;;4.35;2.02;;;;;;;15.21;64.95;101575.80;1796392;79;21057;-79
2021/10/01 09:17:28;;;;;;;4.03;1.72;;;;;;;15.37;64.72;101569.06;1763316;81;20993;-80
2021/10/01 09:19:55;;;;;;;4.53;2.10;;;;;;;15.45;64.33;101569.86;1796233;79;21440;-79
2021/10/01 09:22:37;;;;;;;5.72;2.30;;;;;;;15.52;64.02;101562.50;1783284;80;21067;-79
2021/10/01 09:25:17;;;;;;;4.08;2.52;;;;;;;15.50;63.66;101561.31;1774445;80;21038;-80
2021/10/01 09:27:45;;;;;;;4.45;2.05;;;;;;;15.47;63.28;101559.79;1796417;79;20982;-79
2021/10/01 09:30:13;;;;;;;6.60;1.75;;;;;;;15.51;62.99;101564.84;1763170;81;21096;-79
2021/10/01 09:32:40;;;;;;;5.75;1.80;;;;;;;15.58;62.70;101559.11;1788339;79;21075;-79
2021/10/01 09:35:13;;;;;;;6.70;2.00;;;;;;;15.58;62.39;101550.53;1765513;81;21142;-79
2021/10/01 09:37:41;;;;;;;3.42;2.10;;;;;;;15.67;62.04;101545.95;1733036;82;21591;-80
2021/10/01 09:40:08;;;;;;;2.70;1.90;;;;;;;15.69;61.61;101546.09;1765685;81;21054;-79
2021/10/01 09:42:49;;;;;;;6.45;1.70;;;;;;;15.74;61.30;101542.89;1733602;82;21062;-80
2021/10/01 09:45:14;;;;;;;;;;;;;;;15.78;61.00;101537.49;1767810;81;21136;-80
2021/10/01 09:47:49;;;;;;;5.05;2.00;;;;;;;15.79;60.64;101531.11;1765311;81;21046;-80
2021/10/01 09:50:25;;;;;;;3.37;1.90;;;;;;;15.79;60.31;101533.30;1730754;82;21069;-80
2021/10/01 09:52:59;;;;;;;4.85;1.85;;;;;;;15.85;60.00;101528.55;1760023;81;21011;-79
2021/10/01 09:55:41;;;;;;;7.22;2.15;;;;;;;15.92;59.68;101531.36;1704457;83;21057;-79
2021/10/01 09:58:13;;;;;;;4.10;2.52;;;;;;;16.08;59.39;101522.37;1760009;80;21057;-79
2021/10/01 10:00:46;;;;;;;2.87;1.98;;;;;;;16.18;59.10;101521.13;1759826;81;21384;-80
2021/10/01 10:03:31;;;;;;;7.87;2.62;;;;;;;16.32;58.98;101506.88;1759974;80;21480;-80
2021/10/01 10:06:05;;;;;;;3.15;1.77;;;;;;;16.38;58.51;101514.23;1759607;81;21042;-80
2021/10/01 10:08:35;;;;;;;5.28;1.85;;;;;;;16.21;57.51;101512.69;1760189;81;21004;-80
2021/10/01 10:11:05;;;;;;;5.75;1.70;;;;;;;16.25;57.36;101509.97;1759949;81;21018;-80
2021/10/01 10:13:52;;;;;;;3.20;1.50;;;;;;;16.21;56.79;101508.64;1759748;81;21237;-79
2021/10/01 10:16:28;;;;;;;4.03;1.30;;;;;;;16.28;56.47;101508.25;1759917;81;21472;-80
2021/10/01 10:19:07;;;;;;;5.53;1.65;;;;;;;16.39;56.33;101507.84;1759662;81;21346;-80
2021/10/01 10:21:33;;;;;;;4.40;1.57;;;;;;;16.45;56.13;101499.03;1759862;81;21097;-80
2021/10/01 10:23:59;;;;;;;2.27;1.40;;;;;;;16.55;55.97;101495.23;1783701;80;21055;-80
2021/10/01 10:26:25;;;;;;;3.77;1.60;;;;;;;16.62;55.81;101498.91;1790772;79;21139;-79
2021/10/01 10:28:53;;;;;;;2.77;1.75;;;;;;;16.70;55.56;101497.49;1790449;80;20992;-80
2021/10/01 10:31:19;;;;;;;4.85;1.30;;;;;;;16.73;55.21;101487.69;1790834;79;21075;-80
2021/10/01 10:33:49;;;;;;;2.27;0.90;;;;;;;16.69;54.62;101486.38;1790751;80;21026;-80
2021/10/01 10:36:41;;;;;;;2.12;0.93;;;;;;;16.66;54.13;101485.41;1790686;80;21027;-80
2021/10/01 10:39:17;;;;;;;3.20;1.00;;;;;;;16.67;53.85;101485.73;1790598;79;21218;-80
2021/10/01 10:41:45;;;;;;;5.95;1.00;;;;;;;16.78;53.64;101475.33;1790670;80;21007;-80
2021/10/01 10:44:14;;;;;;;3.58;1.22;;;;;;;16.92;53.49;101471.00;1761371;80;34645;-80
2021/10/01 10:46:44;;;;;;;1.47;0.90;;;;;;;16.98;53.27;101469.75;1761959;81;21556;-80
2021/10/01 10:49:22;;;;;;;2.35;1.20;;;;;;;16.95;52.76;101467.94;1757458;80;21029;-81
2021/10/01 10:52:13;;;;;;;1.47;0.70;;;;;;;17.00;52.63;101461.46;1760850;81;21103;-81
2021/10/01 10:54:44;;;;;;;4.00;0.70;;;;;;;17.09;52.21;101460.87;1760734;81;21015;-81
2021/10/01 10:57:26;;;;;;;1.62;0.78;;;;;;;17.07;51.57;101463.73;1759898;80;21463;-81
2021/10/01 10:59:58;;;;;;;3.25;0.78;;;;;;;17.04;51.16;101460.07;1752302;80;20983;-80
2021/10/01 11:08:03;;;;;;;4.05;1.10;;;;;;;17.10;50.36;101446.38;1777704;79;23092;-81
2021/10/01 11:10:46;;;;;;;2.27;0.90;;;;;;;17.07;50.19;101448.91;1752461;81;21105;-81
2021/10/01 11:13:24;;;;;;;2.47;1.40;;;;;;;17.04;49.91;101441.20;1752614;81;22047;-81
2021/10/01 11:16:15;;;;;;;1.72;1.00;;;;;;;16.96;49.36;101437.25;1751212;81;20979;-80
2021/10/01 11:18:50;;;;;;;3.25;1.37;;;;;;;16.96;49.18;101434.05;1752603;81;20935;-80
2021/10/01 11:21:31;;;;;;;4.05;1.00;;;;;;;17.07;49.14;101430.05;1729607;81;21091;-79
2021/10/01 11:24:05;;;;;;;6.30;0.80;;;;;;;17.14;49.05;101430.13;1750046;81;21582;-80
2021/10/01 11:26:39;;;;;;;3.20;0.80;;;;;;;17.23;48.88;101428.52;1754269;81;22183;-80
2021/10/01 11:29:38;;;;;;;5.72;1.00;;;;;;;17.19;48.55;101423.17;1754698;81;21011;-80
2021/10/01 11:32:08;;;;;;;3.83;1.00;;;;;;;17.10;48.18;101423.47;1741383;81;20991;-80
2021/10/01 11:34:49;;;;;;;1.85;0.70;;;;;;;17.05;47.80;101419.13;1747482;81;21087;-80
2021/10/01 11:37:30;;;;;;;1.32;0.70;;;;;;;17.09;47.68;101420.44;1752269;81;22086;-81
2021/10/01 11:40:00;;;;;;;2.02;0.90;;;;;;;17.09;47.47;101411.84;1745204;81;21162;-80
2021/10/01 11:42:36;;;;;;;1.45;0.90;;;;;;;17.13;47.30;101410.95;1735745;81;21071;-80
2021/10/01 11:45:29;;;;;;;1.67;0.80;;;;;;;17.14;46.97;101402.66;1746913;80;21051;-80
2021/10/01 11:48:03;;;;;;;2.22;0.78;;;;;;;17.23;46.85;101397.51;1761759;81;21023;-79
2021/10/01 11:50:44;;;;;;;2.67;0.90;;;;;;;17.35;46.87;101404.06;1752689;81;21015;-80
2021/10/01 11:53:30;;;;;;;2.47;1.25;;;;;;;17.44;46.76;101400.25;1753639;81;21114;-79
2021/10/01 11:56:01;;;;;;;7.65;1.35;;;;;;;17.44;46.57;101395.37;1753284;81;21022;-80
2021/10/01 11:58:29;;;;;;;6.42;1.42;;;;;;;17.37;46.21;101389.91;1752305;81;21380;-79
2021/10/01 12:00:55;;;;;;;1.37;1.05;;;;;;;17.42;46.21;101392.01;1752289;81;21677;-83
2021/10/01 12:03:21;;;;;;;2.55;0.85;;;;;;;17.44;46.16;101384.07;1720192;81;21083;-83
2021/10/01 12:05:52;;;;;;;1.27;0.98;;;;;;;17.52;46.10;101381.77;1694873;84;21372;-83
2021/10/01 12:08:21;;;;;;;3.55;1.30;;;;;;;17.56;46.08;101380.37;1718087;83;21022;-83
2021/10/01 12:10:50;;;;;;;4.83;1.32;;;;;;;17.52;45.80;101381.77;1722809;83;21074;-83
2021/10/01 12:13:22;;;;;;;1.40;0.65;;;;;;;17.46;45.49;101376.61;1722620;83;21598;-83
2021/10/01 12:16:02;;;;;;;4.30;0.70;;;;;;;17.40;45.26;101377.38;1719338;83;21085;-82
2021/10/01 12:18:45;;;;;;;5.25;1.82;;;;;;;17.51;45.34;101369.30;1722250;83;21885;-82
2021/10/01 12:21:17;;;;;;;2.15;0.88;;;;;;;17.60;45.36;101367.33;1706650;83;21066;-83
2021/10/01 12:24:01;;;;;;;1.72;0.85;;;;;;;17.61;45.27;101358.22;1722184;83;21104;-82
2021/10/01 12:26:31;;;;;;;3.47;1.10;;;;;;;17.56;45.21;101350.70;1692640;84;21373;-82
2021/10/01 12:29:19;;;;;;;1.00;0.90;;;;;;;17.53;44.96;101353.75;1661993;86;21078;-82
2021/10/01 12:31:54;;;;;;;2.58;0.95;;;;;;;17.42;44.66;101349.70;1638388;87;21228;-82
2021/10/01 12:34:29;;;;;;;3.05;1.02;;;;;;;17.38;44.50;101337.62;1661852;86;21039;-82
2021/10/01 12:37:08;;;;;;;3.15;1.17;;;;;;;17.45;44.59;101341.22;1636638;87;21137;-82
2021/10/01 12:39:38;;;;;;;4.47;0.93;;;;;;;17.48;44.54;101340.86;1656583;86;21476;-82
2021/10/01 12:42:12;;;;;;;2.75;1.05;;;;;;;17.42;44.12;101337.56;1656753;84;21086;-82
2021/10/01 12:44:41;;;;;;;5.62;0.78;;;;;;;17.40;44.09;101330.70;1665336;86;21183;-82
2021/10/01 12:47:17;;;;;;;2.30;0.80;;;;;;;17.49;44.24;101337.63;1644444;86;21058;-82
2021/10/01 12:49:59;;;;;;;2.60;1.07;;;;;;;17.52;44.08;101329.69;1698336;84;21347;-82
2021/10/01 12:52:26;;;;;;;1.50;0.80;;;;;;;17.49;44.01;101323.62;1706843;84;21029;-81
2021/10/01 12:55:10;;;;;;;2.75;0.98;;;;;;;17.51;44.03;101319.91;1704892;83;21635;-82
2021/10/01 12:57:45;;;;;;;1.20;0.70;;;;;;;17.51;44.10;101315.36;1664120;86;21816;-82
2021/10/01 13:00:22;;;;;;;1.52;0.80;;;;;;;17.54;44.18;101308.73;1664904;86;21091;-82
2021/10/01 13:03:07;;;;;;;2.70;0.98;;;;;;;17.55;44.20;101307.20;1690003;84;21116;-82
2021/10/01 13:05:43;;;;;;;3.55;0.90;;;;;;;17.48;44.13;101299.05;1622528;84;21084;-82
2021/10/01 13:08:14;;;;;;;1.00;0.90;;;;;;;17.46;44.06;101305.14;1686383;84;21074;-83